createdAt,value
2019-03-31T00:01:50.706Z,80.35
2019-03-31T00:04:57.722Z,80.87
2019-03-31T00:08:04.758Z,80.13
2019-03-31T00:11:12.685Z,80.56
2019-03-31T00:14:19.605Z,79.76
2019-03-31T00:17:26.622Z,79.01
2019-03-31T00:20:35.126Z,78.45
2019-03-31T00:23:42.062Z,79.18
2019-03-31T00:26:49.268Z,79.81
2019-03-31T00:29:56.364Z,79.40
2019-03-31T00:33:03.160Z,80.24
2019-03-31T00:36:10.184Z,80.51
2019-03-31T00:39:17.274Z,80.71
2019-03-31T00:42:24.198Z,79.72
2019-03-31T00:45:31.239Z,79.56
2019-03-31T00:48:38.140Z,79.71
2019-03-31T00:51:45.309Z,80.24
2019-03-31T00:54:52.334Z,79.58
2019-03-31T00:57:59.344Z,79.61
2019-03-31T01:01:35.825Z,79.48
2019-03-31T01:04:35.186Z,79.40
2019-03-31T01:07:42.359Z,79.13
2019-03-31T01:10:49.354Z,79.49
2019-03-31T01:13:56.907Z,79.31
2019-03-31T01:17:05.699Z,78.97
2019-03-31T01:20:12.762Z,78.19
2019-03-31T01:23:20.027Z,78.30
2019-03-31T01:26:27.034Z,78.26
2019-03-31T01:29:33.974Z,77.65
2019-03-31T01:32:41.185Z,78.53
2019-03-31T01:35:48.308Z,78.04
2019-03-31T01:38:55.115Z,78.87
2019-03-31T01:42:02.047Z,79.62
2019-03-31T01:45:10.522Z,79.57
2019-03-31T01:48:17.425Z,79.63
2019-03-31T01:51:24.316Z,79.44
2019-03-31T01:54:31.568Z,79.36
2019-03-31T01:57:38.595Z,79.65
2019-03-31T02:00:50.446Z,79.24
2019-03-31T02:03:57.408Z,79.69
2019-03-31T02:07:04.725Z,80.14
2019-03-31T02:10:11.710Z,79.66
2019-03-31T02:13:18.681Z,79.42
2019-03-31T02:16:25.510Z,79.60
2019-03-31T02:19:32.303Z,79.58
2019-03-31T02:22:39.175Z,79.92
2019-03-31T02:25:46.479Z,79.76
2019-03-31T02:28:53.289Z,79.96
2019-03-31T02:32:00.395Z,79.17
2019-03-31T02:35:07.502Z,79.50
2019-03-31T02:38:14.619Z,79.50
2019-03-31T02:41:22.509Z,78.74
2019-03-31T02:44:29.403Z,79.01
2019-03-31T02:47:37.535Z,78.66
2019-03-31T02:50:47.957Z,79.35
2019-03-31T02:53:54.927Z,79.22
2019-03-31T02:57:02.311Z,78.98
2019-03-31T03:00:09.362Z,79.26
2019-03-31T03:03:19.898Z,79.08
2019-03-31T03:06:27.217Z,78.42
2019-03-31T03:09:34.593Z,78.80
2019-03-31T03:12:43.497Z,78.38
2019-03-31T03:16:24.798Z,78.93
2019-03-31T03:19:31.686Z,79.22
2019-03-31T03:22:38.619Z,79.08
2019-03-31T03:25:56.262Z,78.06
2019-03-31T03:29:02.920Z,78.36
2019-03-31T03:32:10.113Z,78.06
2019-03-31T03:35:17.390Z,78.59
2019-03-31T03:38:24.316Z,78.98
2019-03-31T03:41:31.167Z,78.77
2019-03-31T03:44:38.099Z,78.72
2019-03-31T03:47:45.252Z,79.05
2019-03-31T03:50:52.223Z,78.88
2019-03-31T03:53:59.486Z,78.29
2019-03-31T03:57:06.590Z,77.76
2019-03-31T04:00:13.619Z,78.13
2019-03-31T04:03:30.010Z,77.87
2019-03-31T04:06:29.441Z,78.77
2019-03-31T04:09:36.326Z,78.70
2019-03-31T04:12:43.301Z,78.26
2019-03-31T04:15:50.509Z,78.35
2019-03-31T04:18:57.531Z,78.58
2019-03-31T04:22:04.438Z,78.63
2019-03-31T04:25:11.304Z,78.71
2019-03-31T04:28:18.743Z,78.52
2019-03-31T04:31:25.776Z,78.62
2019-03-31T04:34:32.652Z,78.71
2019-03-31T04:37:39.587Z,78.41
2019-03-31T04:40:46.611Z,78.54
2019-03-31T04:43:53.858Z,78.14
2019-03-31T04:47:00.645Z,78.46
2019-03-31T04:50:07.760Z,77.80
2019-03-31T04:53:14.713Z,77.58
2019-03-31T04:56:21.638Z,76.64
2019-03-31T04:59:28.845Z,76.35
2019-03-31T05:02:35.767Z,76.10
2019-03-31T05:05:42.669Z,75.69
2019-03-31T05:08:49.616Z,75.76
2019-03-31T05:11:56.491Z,75.88
2019-03-31T05:15:04.614Z,75.39
2019-03-31T05:18:11.633Z,74.89
2019-03-31T05:21:18.884Z,75.13
2019-03-31T05:24:26.773Z,74.56
2019-03-31T05:27:33.708Z,73.81
2019-03-31T05:30:40.855Z,73.74
2019-03-31T05:33:47.691Z,73.25
2019-03-31T05:36:54.564Z,73.23
2019-03-31T05:40:01.699Z,73.19
2019-03-31T05:43:08.721Z,72.75
2019-03-31T05:46:15.775Z,73.08
2019-03-31T05:49:22.638Z,73.85
2019-03-31T05:52:29.505Z,73.81
2019-03-31T05:55:36.460Z,73.77
2019-03-31T05:58:43.424Z,74.67
2019-03-31T06:01:50.653Z,74.26
2019-03-31T06:04:57.720Z,74.63
2019-03-31T06:08:04.868Z,74.07
2019-03-31T06:11:11.820Z,74.51
2019-03-31T06:14:18.686Z,73.81
2019-03-31T06:17:25.740Z,74.11
2019-03-31T06:20:32.701Z,73.61
2019-03-31T06:23:39.630Z,73.95
2019-03-31T06:26:46.594Z,74.12
2019-03-31T06:29:53.718Z,74.80
2019-03-31T06:33:00.950Z,74.43
2019-03-31T06:36:08.996Z,74.54
2019-03-31T06:39:15.792Z,73.85
2019-03-31T06:42:22.728Z,72.36
2019-03-31T06:45:29.871Z,72.36
2019-03-31T06:48:36.708Z,73.08
2019-03-31T06:51:43.602Z,73.70
2019-03-31T06:54:50.513Z,73.87
2019-03-31T06:57:57.373Z,74.04
2019-03-31T07:01:04.491Z,73.70
2019-03-31T07:04:11.776Z,73.27
2019-03-31T07:07:18.712Z,73.95
2019-03-31T07:10:25.686Z,71.98
2019-03-31T07:13:32.524Z,71.56
2019-03-31T07:16:39.332Z,71.74
2019-03-31T07:19:46.531Z,72.01
2019-03-31T07:22:53.481Z,71.39
2019-03-31T07:26:00.399Z,71.17
2019-03-31T07:29:07.279Z,70.76
2019-03-31T07:32:14.218Z,70.58
2019-03-31T07:35:21.560Z,70.87
2019-03-31T07:38:38.343Z,70.83
2019-03-31T07:41:37.239Z,70.34
2019-03-31T07:44:45.121Z,71.02
2019-03-31T07:47:52.147Z,69.43
2019-03-31T07:50:59.159Z,68.38
2019-03-31T07:54:06.053Z,69.46
2019-03-31T07:57:13.052Z,66.35
2019-03-31T08:00:20.756Z,66.35
2019-03-31T08:03:28.734Z,66.90
2019-03-31T08:06:36.033Z,67.08
2019-03-31T08:09:42.862Z,65.99
2019-03-31T08:12:49.764Z,64.62
2019-03-31T08:15:56.864Z,64.67
2019-03-31T08:19:03.735Z,62.77
2019-03-31T08:22:10.664Z,62.57
2019-03-31T08:25:17.794Z,62.98
2019-03-31T08:28:25.770Z,64.63
2019-03-31T08:31:32.700Z,62.96
2019-03-31T08:34:40.363Z,62.56
2019-03-31T08:37:47.974Z,62.94
2019-03-31T08:40:56.437Z,61.90
2019-03-31T08:44:03.320Z,60.76
2019-03-31T08:47:10.916Z,59.91
2019-03-31T08:50:18.174Z,58.92
2019-03-31T08:53:25.187Z,56.61
2019-03-31T08:56:32.040Z,58.13
2019-03-31T08:59:40.084Z,56.86
2019-03-31T09:02:48.650Z,54.29
2019-03-31T09:06:02.040Z,52.97
2019-03-31T09:09:05.969Z,53.89
2019-03-31T09:12:13.145Z,52.14
2019-03-31T09:15:20.117Z,52.77
2019-03-31T09:18:27.054Z,52.00
2019-03-31T09:21:33.893Z,50.78
2019-03-31T09:24:41.384Z,49.85
2019-03-31T09:27:48.393Z,51.25
2019-03-31T09:30:55.321Z,50.55
2019-03-31T09:34:02.170Z,48.25
2019-03-31T09:37:10.160Z,47.98
2019-03-31T09:40:19.029Z,46.89
2019-03-31T09:43:26.059Z,47.04
2019-03-31T09:46:32.920Z,46.34
2019-03-31T09:49:40.535Z,46.77
2019-03-31T09:52:47.566Z,47.40
2019-03-31T09:55:54.450Z,47.39
2019-03-31T09:59:01.235Z,48.75
2019-03-31T10:02:08.230Z,50.28
2019-03-31T10:05:15.383Z,52.09
2019-03-31T10:08:22.559Z,49.98
2019-03-31T10:11:29.703Z,45.67
2019-03-31T10:14:36.604Z,47.18
2019-03-31T10:17:43.562Z,46.28
2019-03-31T10:20:50.606Z,43.62
2019-03-31T10:23:57.540Z,42.46
2019-03-31T10:27:04.580Z,39.59
2019-03-31T10:30:11.618Z,36.91
2019-03-31T10:33:18.611Z,35.22
2019-03-31T10:36:25.595Z,35.53
2019-03-31T10:39:32.533Z,32.49
2019-03-31T10:42:39.699Z,32.65
2019-03-31T10:45:46.561Z,31.14
2019-03-31T10:48:53.501Z,31.50
2019-03-31T10:52:00.377Z,30.89
2019-03-31T10:55:08.157Z,29.91
2019-03-31T10:58:15.137Z,29.58
2019-03-31T11:01:22.016Z,28.87
2019-03-31T11:04:29.261Z,26.58
2019-03-31T11:07:36.225Z,25.21
2019-03-31T11:10:43.222Z,26.06
2019-03-31T11:13:50.508Z,24.87
2019-03-31T11:16:57.570Z,24.25
2019-03-31T11:20:04.669Z,25.91
2019-03-31T11:23:19.697Z,24.96
2019-03-31T11:26:26.716Z,26.49
2019-03-31T11:29:33.707Z,24.81
2019-03-31T11:32:40.708Z,23.56
2019-03-31T11:35:47.727Z,23.30
2019-03-31T11:38:54.686Z,23.30
2019-03-31T11:42:01.707Z,23.68
2019-03-31T11:45:09.094Z,23.68
2019-03-31T11:48:16.101Z,24.16
2019-03-31T11:51:23.275Z,24.11
2019-03-31T11:54:31.253Z,22.04
2019-03-31T11:57:38.290Z,21.78
2019-03-31T12:00:51.218Z,19.48
2019-03-31T12:03:58.167Z,19.70
2019-03-31T12:07:05.184Z,21.33
2019-03-31T12:10:12.616Z,20.57
2019-03-31T12:13:19.673Z,19.98
2019-03-31T12:16:26.960Z,21.31
2019-03-31T12:19:34.277Z,23.20
2019-03-31T12:22:41.257Z,23.11
2019-03-31T12:25:48.265Z,22.68
2019-03-31T12:28:55.375Z,22.87
2019-03-31T12:32:03.860Z,22.22
2019-03-31T12:35:11.919Z,22.12
2019-03-31T12:38:19.028Z,22.92
2019-03-31T12:41:25.985Z,24.02
2019-03-31T12:44:32.971Z,23.08
2019-03-31T12:47:40.369Z,22.42
2019-03-31T12:50:47.391Z,22.63
2019-03-31T12:53:57.654Z,22.63
2019-03-31T12:57:04.619Z,21.99
2019-03-31T13:00:11.788Z,21.65
2019-03-31T13:03:20.130Z,21.65
2019-03-31T13:06:27.171Z,22.55
2019-03-31T13:09:34.187Z,20.52
2019-03-31T13:12:41.658Z,21.44
2019-03-31T13:15:48.657Z,21.44
2019-03-31T13:18:55.842Z,20.11
2019-03-31T13:22:04.461Z,21.40
2019-03-31T13:25:11.675Z,21.61
2019-03-31T13:28:18.689Z,21.46
2019-03-31T13:31:25.793Z,22.89
2019-03-31T13:34:35.917Z,23.91
2019-03-31T13:37:42.879Z,22.53
2019-03-31T13:40:50.642Z,23.25
2019-03-31T13:43:57.640Z,24.70
2019-03-31T13:47:04.567Z,22.96
2019-03-31T13:50:13.072Z,23.73
2019-03-31T13:53:20.060Z,24.36
2019-03-31T13:56:28.076Z,24.99
2019-03-31T13:59:35.483Z,25.03
2019-03-31T14:02:42.505Z,25.60
2019-03-31T14:05:49.470Z,25.60
2019-03-31T14:08:56.370Z,25.74
2019-03-31T14:12:06.655Z,24.17
2019-03-31T14:15:19.506Z,25.00
2019-03-31T14:18:22.199Z,23.54
2019-03-31T14:21:29.337Z,24.03
2019-03-31T14:24:36.263Z,22.13
2019-03-31T14:27:43.332Z,23.89
2019-03-31T14:30:50.511Z,24.40
2019-03-31T14:33:57.484Z,24.77
2019-03-31T14:37:04.456Z,25.46
2019-03-31T14:40:11.380Z,24.49
2019-03-31T14:43:18.309Z,24.08
2019-03-31T14:46:25.361Z,24.37
2019-03-31T14:49:32.711Z,24.20
2019-03-31T14:52:39.941Z,25.21
2019-03-31T14:55:46.896Z,23.51
2019-03-31T14:58:53.701Z,23.16
2019-03-31T15:02:00.571Z,22.54
2019-03-31T15:05:07.547Z,23.51
2019-03-31T15:08:14.818Z,23.59
2019-03-31T15:11:22.198Z,23.59
2019-03-31T15:14:34.942Z,23.25
2019-03-31T15:17:43.666Z,23.57
2019-03-31T15:20:50.661Z,23.57
2019-03-31T15:23:57.843Z,23.10
2019-03-31T15:27:04.955Z,22.29
2019-03-31T15:30:13.903Z,22.00
2019-03-31T15:33:22.557Z,24.22
2019-03-31T15:36:29.423Z,25.07
2019-03-31T15:39:36.407Z,25.33
2019-03-31T15:42:43.463Z,25.52
2019-03-31T15:45:50.531Z,26.52
2019-03-31T15:48:57.482Z,26.75
2019-03-31T15:52:04.393Z,28.58
2019-03-31T15:55:13.372Z,28.16
2019-03-31T15:58:20.455Z,28.77
2019-03-31T16:01:28.405Z,29.44
2019-03-31T16:04:35.354Z,29.64
2019-03-31T16:07:44.314Z,30.82
2019-03-31T16:10:50.613Z,30.74
2019-03-31T16:13:57.082Z,30.69
2019-03-31T16:17:03.578Z,30.06
2019-03-31T16:20:10.078Z,30.82
2019-03-31T16:23:16.477Z,31.76
2019-03-31T16:26:26.334Z,32.30
2019-03-31T16:29:35.587Z,30.86
2019-03-31T16:32:42.114Z,30.75
2019-03-31T16:35:48.615Z,30.39
2019-03-31T16:38:56.008Z,30.75
2019-03-31T16:42:02.375Z,30.51
2019-03-31T16:45:09.047Z,33.06
2019-03-31T16:48:15.416Z,31.74
2019-03-31T16:51:21.812Z,33.20
2019-03-31T16:54:28.194Z,33.91
2019-03-31T16:57:35.080Z,34.31
2019-03-31T17:00:41.695Z,34.38
2019-03-31T17:03:48.132Z,34.19
2019-03-31T17:06:54.496Z,33.91
2019-03-31T17:10:00.941Z,34.71
2019-03-31T17:13:07.439Z,34.27
2019-03-31T17:16:15.480Z,35.06
2019-03-31T17:19:23.011Z,34.35
2019-03-31T17:22:29.494Z,33.71
2019-03-31T17:25:35.796Z,32.42
2019-03-31T17:28:43.473Z,32.17
2019-03-31T17:31:49.947Z,32.52
2019-03-31T17:34:56.517Z,32.78
2019-03-31T17:38:02.914Z,33.32
2019-03-31T17:41:09.459Z,34.62
2019-03-31T17:44:15.951Z,33.39
2019-03-31T17:47:22.458Z,33.73
2019-03-31T17:50:28.800Z,33.86
2019-03-31T17:53:35.260Z,34.06
2019-03-31T17:56:47.833Z,34.71
2019-03-31T17:59:56.783Z,34.15
2019-03-31T18:03:07.610Z,34.97
2019-03-31T18:06:13.940Z,34.20
2019-03-31T18:09:20.298Z,34.69
2019-03-31T18:12:26.693Z,34.35
2019-03-31T18:15:33.419Z,34.82
2019-03-31T18:18:39.683Z,34.88
2019-03-31T18:21:46.032Z,34.91
2019-03-31T18:24:52.578Z,34.82
2019-03-31T18:27:59.080Z,33.95
2019-03-31T18:31:05.820Z,34.47
2019-03-31T18:34:12.092Z,34.13
2019-03-31T18:37:18.705Z,34.22
2019-03-31T18:40:34.828Z,34.16
2019-03-31T18:43:33.420Z,34.65
2019-03-31T18:46:40.028Z,33.92
2019-03-31T18:49:46.444Z,33.75
2019-03-31T18:52:52.869Z,34.03
2019-03-31T18:56:18.183Z,34.74
2019-03-31T18:59:53.165Z,34.63
2019-03-31T19:03:20.727Z,33.53
2019-03-31T19:06:41.815Z,33.64
2019-03-31T19:10:05.928Z,34.34
2019-03-31T19:13:30.081Z,34.21
2019-03-31T19:17:00.236Z,33.81
2019-03-31T19:20:24.449Z,34.02
2019-03-31T19:23:37.472Z,33.77
2019-03-31T19:26:58.618Z,33.83
2019-03-31T19:30:27.501Z,34.06
2019-03-31T19:34:02.366Z,34.00
2019-03-31T19:37:25.767Z,34.94
2019-03-31T19:41:03.429Z,34.61
2019-03-31T19:44:06.594Z,34.15
2019-03-31T19:47:58.744Z,34.47
2019-03-31T19:51:24.544Z,35.46
2019-03-31T19:54:55.134Z,36.24
2019-03-31T19:58:17.181Z,37.05
2019-03-31T20:01:41.576Z,37.22
2019-03-31T20:05:03.169Z,37.73
2019-03-31T20:08:28.250Z,37.57
2019-03-31T20:11:52.612Z,36.92
2019-03-31T20:15:20.798Z,37.50
2019-03-31T20:18:38.247Z,37.80
2019-03-31T20:21:50.295Z,39.45
2019-03-31T20:25:08.080Z,40.01
2019-03-31T20:28:32.279Z,39.82
2019-03-31T20:31:47.230Z,40.17
2019-03-31T20:35:12.835Z,39.02
2019-03-31T20:38:28.295Z,39.65
2019-03-31T20:42:09.682Z,39.56
2019-03-31T20:45:18.997Z,39.89
2019-03-31T20:48:27.586Z,40.88
2019-03-31T20:51:37.118Z,40.44
2019-03-31T20:54:45.069Z,41.23
2019-03-31T20:57:52.230Z,41.11
2019-03-31T21:01:01.473Z,41.74
2019-03-31T21:04:08.882Z,42.41
2019-03-31T21:07:15.564Z,42.76
2019-03-31T21:10:21.900Z,43.08
2019-03-31T21:13:28.384Z,43.75
2019-03-31T21:16:34.719Z,43.62
2019-03-31T21:19:41.279Z,44.09
2019-03-31T21:22:47.623Z,44.43
2019-03-31T21:25:54.369Z,44.76
2019-03-31T21:29:00.807Z,45.14
2019-03-31T21:32:07.098Z,45.35
2019-03-31T21:35:13.584Z,45.86
2019-03-31T21:38:21.551Z,45.62
2019-03-31T21:41:27.923Z,45.93
2019-03-31T21:44:34.207Z,46.36
2019-03-31T21:47:40.633Z,47.06
2019-03-31T21:50:47.027Z,47.15
2019-03-31T21:53:53.360Z,47.78
2019-03-31T21:57:00.023Z,47.91
2019-03-31T22:00:08.223Z,48.44
2019-03-31T22:03:16.280Z,48.33
2019-03-31T22:06:23.684Z,48.81
2019-03-31T22:09:31.919Z,48.39
2019-03-31T22:12:38.313Z,48.59
2019-03-31T22:15:44.884Z,48.75
2019-03-31T22:18:51.319Z,48.79
2019-03-31T22:21:57.715Z,48.76
2019-03-31T22:25:04.178Z,48.80
2019-03-31T22:28:10.752Z,49.46
2019-03-31T22:31:17.114Z,49.82
2019-03-31T22:34:23.640Z,50.02
2019-03-31T22:37:30.073Z,50.02
2019-03-31T22:40:36.525Z,50.29
2019-03-31T22:43:42.825Z,50.61
2019-03-31T22:46:54.376Z,50.70
2019-03-31T22:49:58.405Z,51.38
2019-03-31T22:53:04.916Z,51.12
2019-03-31T22:56:11.310Z,51.38
2019-03-31T22:59:17.756Z,51.96
2019-03-31T23:02:24.238Z,51.90
2019-03-31T23:05:30.714Z,52.22
2019-03-31T23:08:37.107Z,52.39
2019-03-31T23:11:44.597Z,52.80
2019-03-31T23:14:50.851Z,52.66
2019-03-31T23:17:57.208Z,52.25
2019-03-31T23:21:03.630Z,52.13
2019-03-31T23:24:10.050Z,51.86
2019-03-31T23:27:16.468Z,52.32
2019-03-31T23:30:22.961Z,52.05
2019-03-31T23:33:29.339Z,51.56
2019-03-31T23:36:37.911Z,51.19
2019-03-31T23:39:44.479Z,51.45
2019-03-31T23:42:50.907Z,51.26
2019-03-31T23:45:57.298Z,51.27
2019-03-31T23:49:04.643Z,51.75
2019-03-31T23:52:11.221Z,51.37
2019-03-31T23:55:17.868Z,51.10
2019-03-31T23:58:24.290Z,50.92
